Terminal Aerodrome Forecast
Issued by NWS Des Moines, IA

Home | Current Version | Previous Version | Text Only | Print | Product List | Glossary On
Versions: 1 2 3 4 5 6 7 8 9 10 11 12 13 14 15 16 17 18 19 20 21 22 23 24 25 26 27 28 29 30
090
FTUS43 KDMX 112339
TAFALO
TAF
KALO 112339Z 1200/1224 18006KT P6SM BKN070
     FM120200 19006KT 6SM -SN BKN040
     FM120500 21006KT 5SM -SN BKN020 OVC035
     FM120900 28012KT P6SM OVC012
     FM121300 32017KT P6SM FEW030
     FM121700 33019G26KT P6SM SCT020=

USA.gov is the U.S. government's official web portal to all federal, state and local government web resources and services.